Fleming, Ohio
Current Conditions -  °F | °C
As of 4:53 AM on Saturday 25 Oct 2014 (Local Time) from KPKB Reporting Station
Clear Clear  
Wind Chill: 38°   Ceiling: Unl
Heat Index: 38°   Visibility: 8mi
Dew Point: 35°   Wind: 3mph
Humidity: 89%   Direction: 150°SSE
Pressure: 30.03"   Gusts: NA
Location:  39.39°N, 81.61°W
Report Text: KPKB 250853Z AUTO 15003KT 8SM CLR 03/02 A3003 RMK AO2 SLP171 T00330017 58006
Loading
Personal Weather Stations






























Interactive Weather Map
Tropical Storm Tracking
New forecast layout! Learn more

10-Day Weather Forecast

Advertisements
Track Severe Weather on mobile